Time;durP1;ratioP1;P1;durP2;ratioP2;P2;SDS_P1;SDS_P2;PMS_P1;PMS_P2;Temp;Humidity;BMP_temperature;BMP_pressure;BME280_temperature;BME280_humidity;BME280_pressure;Samples;Min_cycle;Max_cycle;Signal;HPM_P1;HPM_P2
2021/01/23 00:01:28;;;;;;;5.35;1.50;;;2.40;99.90;;;;;;5037674;28;20221;-70
2021/01/23 00:03:54;;;;;;;16.80;1.77;;;2.40;99.90;;;;;;5036084;28;20679;-70
2021/01/23 00:06:20;;;;;;;3.25;1.27;;;2.50;99.90;;;;;;5039079;28;20198;-70
2021/01/23 00:08:46;;;;;;;3.40;1.20;;;2.40;99.90;;;;;;5039265;28;20202;-70
2021/01/23 00:11:12;;;;;;;4.97;1.30;;;2.40;99.90;;;;;;5037857;28;20821;-70
2021/01/23 00:13:38;;;;;;;4.15;1.40;;;2.50;99.90;;;;;;5034867;28;20201;-70
2021/01/23 00:16:04;;;;;;;5.50;1.60;;;2.50;99.90;;;;;;5036594;28;20189;-70
2021/01/23 00:18:29;;;;;;;5.78;1.40;;;2.50;99.90;;;;;;5037323;28;20657;-70
2021/01/23 00:20:55;;;;;;;2.53;1.50;;;2.40;99.90;;;;;;5034707;28;20255;-70
2021/01/23 00:23:21;;;;;;;4.35;1.50;;;2.40;99.90;;;;;;5036528;28;20205;-70
2021/01/23 00:25:46;;;;;;;4.97;1.60;;;2.40;99.90;;;;;;5038364;28;20581;-70
2021/01/23 00:28:12;;;;;;;2.17;1.30;;;2.40;99.90;;;;;;5036087;28;20209;-70
2021/01/23 00:30:38;;;;;;;3.33;1.40;;;2.40;99.90;;;;;;5035540;28;20197;-70
2021/01/23 00:33:04;;;;;;;4.38;1.30;;;2.40;99.90;;;;;;5034711;28;20721;-70
2021/01/23 00:35:29;;;;;;;2.53;1.20;;;2.40;99.90;;;;;;5033587;28;20209;-70
2021/01/23 00:37:55;;;;;;;3.90;1.30;;;2.40;99.90;;;;;;5033291;28;20194;-70
2021/01/23 00:40:20;;;;;;;2.38;1.23;;;2.30;99.90;;;;;;5034458;28;20198;-70
2021/01/23 00:42:46;;;;;;;2.95;1.20;;;2.30;99.90;;;;;;5034224;28;20295;-70
2021/01/23 00:45:13;;;;;;;0.98;0.90;;;2.30;99.90;;;;;;5035172;28;21029;-70
2021/01/23 00:47:38;;;;;;;1.55;0.98;;;2.30;99.90;;;;;;5036789;28;20256;-70
2021/01/23 00:50:05;;;;;;;1.17;0.93;;;2.30;99.90;;;;;;5036190;28;20201;-70
2021/01/23 00:52:30;;;;;;;1.42;0.80;;;2.20;99.90;;;;;;5031984;28;20236;-70
2021/01/23 00:54:56;;;;;;;7.20;1.10;;;2.20;99.90;;;;;;5036721;28;20197;-70
2021/01/23 00:57:22;;;;;;;0.80;0.80;;;2.20;99.90;;;;;;5038900;28;20301;-70
2021/01/23 00:59:47;;;;;;;1.35;0.90;;;2.20;99.90;;;;;;5034682;28;20240;-70
2021/01/23 01:02:13;;;;;;;1.23;0.90;;;2.20;99.90;;;;;;5008140;28;773559;-70
2021/01/23 01:04:39;;;;;;;3.33;1.08;;;2.20;99.90;;;;;;5037121;28;20293;-70
2021/01/23 01:07:04;;;;;;;2.47;0.90;;;2.20;99.90;;;;;;5032823;28;20555;-70
2021/01/23 01:09:30;;;;;;;4.50;1.10;;;2.10;99.90;;;;;;5035300;28;20206;-71
2021/01/23 01:11:56;;;;;;;2.50;1.20;;;2.10;99.90;;;;;;5033587;28;20213;-70
2021/01/23 01:14:22;;;;;;;3.13;1.60;;;2.10;99.90;;;;;;5031935;28;20320;-71
2021/01/23 01:16:47;;;;;;;3.10;1.48;;;2.10;99.90;;;;;;5036727;28;20288;-71
2021/01/23 01:19:13;;;;;;;4.22;1.70;;;2.20;99.90;;;;;;5031128;28;20201;-71
2021/01/23 01:21:39;;;;;;;5.57;1.70;;;2.20;99.90;;;;;;5035683;28;20205;-70
2021/01/23 01:24:05;;;;;;;3.65;1.70;;;2.20;99.90;;;;;;5034523;28;20208;-71
2021/01/23 01:26:31;;;;;;;3.25;1.45;;;2.20;99.90;;;;;;5032033;28;20259;-71
2021/01/23 01:28:57;;;;;;;5.10;1.60;;;2.20;99.90;;;;;;5035610;28;20197;-71
2021/01/23 01:31:23;;;;;;;4.95;1.95;;;2.20;99.90;;;;;;5037678;28;20332;-71
2021/01/23 01:33:49;;;;;;;4.10;1.60;;;2.20;99.90;;;;;;5033633;28;20200;-71
2021/01/23 01:36:15;;;;;;;5.63;1.70;;;2.20;99.90;;;;;;5034977;28;20709;-71
2021/01/23 01:38:41;;;;;;;2.95;1.58;;;2.20;99.90;;;;;;5031697;28;20287;-71
2021/01/23 01:41:07;;;;;;;4.28;1.60;;;2.30;99.90;;;;;;5033503;28;20281;-70
2021/01/23 01:43:33;;;;;;;3.17;1.40;;;2.30;99.90;;;;;;5033592;28;20223;-71
2021/01/23 01:45:59;;;;;;;3.67;1.60;;;2.30;99.90;;;;;;5034522;28;20190;-71
2021/01/23 01:48:25;;;;;;;5.18;1.70;;;2.40;99.90;;;;;;5035583;28;20197;-72
2021/01/23 01:50:54;;;;;;;3.70;1.55;;;2.30;99.90;;;;;;5031460;28;20213;-72
2021/01/23 01:53:21;;;;;;;5.75;1.67;;;2.30;99.90;;;;;;5032791;28;20201;-72
2021/01/23 01:55:48;;;;;;;3.70;1.52;;;2.30;99.90;;;;;;5030326;28;20246;-72
2021/01/23 01:58:14;;;;;;;3.05;1.50;;;2.30;99.90;;;;;;5033770;28;20201;-72
2021/01/23 02:00:40;;;;;;;3.05;1.52;;;2.30;99.90;;;;;;5034644;28;20242;-70
2021/01/23 02:05:41;;;;;;;4.97;1.52;;;2.30;99.90;;;;;;5075720;22;20234;-80
2021/01/23 02:08:20;;;;;;;4.47;1.50;;;2.30;99.90;;;;;;5091439;28;20199;-80
2021/01/23 02:11:17;;;;;;;4.07;1.75;;;2.40;99.90;;;;;;5086439;28;20285;-80
2021/01/23 02:14:13;;;;;;;3.30;1.27;;;2.40;99.90;;;;;;5093852;28;20288;-80
2021/01/23 02:16:46;;;;;;;3.78;1.40;;;2.40;99.90;;;;;;5093695;28;20609;-79
2021/01/23 02:19:58;;;;;;;9.77;1.60;;;2.40;99.90;;;;;;5092069;28;20936;-80
2021/01/23 02:22:42;;;;;;;6.20;1.55;;;2.40;99.90;;;;;;5086824;28;20207;-80
2021/01/23 02:25:08;;;;;;;4.93;1.58;;;2.40;99.90;;;;;;5092531;28;20256;-80
2021/01/23 02:27:46;;;;;;;8.27;2.08;;;2.40;99.90;;;;;;5089365;28;20586;-80
2021/01/23 02:30:18;;;;;;;4.85;2.00;;;2.40;99.90;;;;;;5092176;28;20198;-79
2021/01/23 02:32:46;;;;;;;5.97;1.95;;;2.30;99.90;;;;;;5090814;28;20226;-80
2021/01/23 02:35:13;;;;;;;4.90;1.95;;;2.40;99.90;;;;;;5091817;28;20200;-80
2021/01/23 02:37:41;;;;;;;6.88;1.88;;;2.40;99.90;;;;;;5089549;28;20554;-80
2021/01/23 02:40:09;;;;;;;6.32;1.83;;;2.40;99.90;;;;;;5090360;28;20210;-80
2021/01/23 02:42:35;;;;;;;6.50;2.10;;;2.40;99.90;;;;;;5094118;28;20210;-80
2021/01/23 02:45:09;;;;;;;5.72;2.00;;;2.40;99.90;;;;;;5093494;28;20616;-80
2021/01/23 02:47:35;;;;;;;7.03;1.50;;;2.50;99.90;;;;;;5090969;28;20561;-80
2021/01/23 02:50:02;;;;;;;8.60;1.30;;;2.50;99.90;;;;;;5096483;28;20251;-80
2021/01/23 02:52:40;;;;;;;10.55;1.42;;;2.50;99.90;;;;;;5096170;28;20211;-81
2021/01/23 02:55:09;;;;;;;4.53;1.42;;;2.50;99.90;;;;;;5095248;28;20183;-80
2021/01/23 02:57:39;;;;;;;8.80;1.77;;;2.50;99.90;;;;;;5095379;28;20646;-80
2021/01/23 03:00:10;;;;;;;8.27;1.55;;;2.50;99.90;;;;;;5096542;28;20200;-80
2021/01/23 03:02:45;;;;;;;6.40;1.50;;;2.50;99.90;;;;;;5094107;28;20200;-80
2021/01/23 03:05:15;;;;;;;5.97;1.65;;;2.60;99.90;;;;;;5094491;28;20234;-81
2021/01/23 03:07:41;;;;;;;7.25;1.65;;;2.70;99.90;;;;;;5093509;28;20676;-81
2021/01/23 03:10:08;;;;;;;6.07;1.15;;;2.70;99.90;;;;;;5098379;28;20191;-79
2021/01/23 03:12:34;;;;;;;5.25;1.30;;;2.80;99.90;;;;;;5094772;28;20633;-80
2021/01/23 03:14:59;;;;;;;4.63;1.20;;;2.80;99.90;;;;;;5092791;28;20627;-79
2021/01/23 03:17:25;;;;;;;7.93;1.23;;;2.70;99.90;;;;;;5092665;28;20700;-79
2021/01/23 03:19:51;;;;;;;6.13;1.40;;;2.70;99.90;;;;;;5098220;28;20202;-80
2021/01/23 03:22:19;;;;;;;9.20;1.25;;;2.80;99.90;;;;;;5100354;28;20274;-80
2021/01/23 03:24:45;;;;;;;6.78;1.33;;;2.80;99.90;;;;;;5092499;28;20621;-79
2021/01/23 03:27:12;;;;;;;4.22;1.40;;;2.80;99.90;;;;;;5097147;28;20367;-79
2021/01/23 03:29:37;;;;;;;14.23;1.52;;;2.80;99.90;;;;;;5094899;28;20226;-80
2021/01/23 03:32:03;;;;;;;6.15;1.30;;;2.70;99.90;;;;;;5097119;28;20207;-79
2021/01/23 03:34:29;;;;;;;4.05;1.35;;;2.70;99.90;;;;;;5093958;28;20211;-80
2021/01/23 03:36:55;;;;;;;6.85;1.33;;;2.70;99.90;;;;;;5094032;28;21570;-79
2021/01/23 03:39:20;;;;;;;7.97;1.40;;;2.70;99.90;;;;;;5092348;28;20188;-79
2021/01/23 03:41:46;;;;;;;5.65;1.30;;;2.70;99.90;;;;;;5095907;28;20282;-80
2021/01/23 03:44:12;;;;;;;5.72;1.30;;;2.70;99.90;;;;;;5091432;28;20203;-79
2021/01/23 03:46:38;;;;;;;11.55;1.83;;;2.70;99.90;;;;;;5096383;28;20316;-80
2021/01/23 03:49:03;;;;;;;7.93;1.60;;;2.70;99.90;;;;;;5094114;28;20601;-79
2021/01/23 03:51:29;;;;;;;9.85;1.73;;;2.70;99.90;;;;;;5090906;28;20239;-79
2021/01/23 03:53:55;;;;;;;9.25;1.45;;;2.70;99.90;;;;;;5085197;28;20262;-80
2021/01/23 03:56:21;;;;;;;12.43;2.30;;;2.60;99.90;;;;;;5089286;28;20204;-79
2021/01/23 03:58:47;;;;;;;8.88;1.77;;;2.60;99.90;;;;;;5090516;28;20568;-79
2021/01/23 04:01:12;;;;;;;6.60;1.70;;;2.60;99.90;;;;;;5085220;28;20201;-79
2021/01/23 04:03:38;;;;;;;23.58;2.40;;;2.70;99.90;;;;;;5085680;28;20562;-80
2021/01/23 04:06:04;;;;;;;7.75;1.73;;;2.70;99.90;;;;;;5095711;28;20283;-80
2021/01/23 04:08:30;;;;;;;16.63;2.13;;;2.70;99.90;;;;;;5097941;28;20216;-80
2021/01/23 04:10:56;;;;;;;8.73;1.60;;;2.70;99.90;;;;;;5101110;28;20527;-80
2021/01/23 04:13:22;;;;;;;12.25;1.58;;;2.70;99.90;;;;;;5094548;28;20283;-80
2021/01/23 04:15:48;;;;;;;12.85;1.75;;;2.70;99.90;;;;;;5093503;28;20195;-80
2021/01/23 04:18:14;;;;;;;16.13;2.08;;;2.70;99.90;;;;;;5092519;28;20253;-80
2021/01/23 04:20:40;;;;;;;11.60;1.70;;;2.70;99.90;;;;;;5089337;28;20192;-79
2021/01/23 04:23:05;;;;;;;18.92;2.25;;;2.70;99.90;;;;;;5093977;28;20245;-79
2021/01/23 04:25:31;;;;;;;15.90;1.73;;;2.70;99.90;;;;;;5094437;28;20199;-79
2021/01/23 04:27:57;;;;;;;17.60;1.98;;;2.70;99.90;;;;;;5094366;28;20681;-79
2021/01/23 04:30:24;;;;;;;9.00;1.90;;;2.70;99.90;;;;;;5092129;28;20238;-79
2021/01/23 04:32:51;;;;;;;17.35;1.83;;;2.60;99.90;;;;;;5095869;28;20276;-79
2021/01/23 04:35:17;;;;;;;11.50;2.13;;;2.60;99.90;;;;;;5099015;28;20391;-79
2021/01/23 04:37:42;;;;;;;12.10;1.85;;;2.50;99.90;;;;;;5097927;28;20203;-79
2021/01/23 04:40:10;;;;;;;12.90;2.08;;;2.50;99.90;;;;;;5092249;28;20256;-79
2021/01/23 04:42:43;;;;;;;6.85;1.65;;;2.40;99.90;;;;;;5093008;28;20195;-79
2021/01/23 04:45:11;;;;;;;10.93;1.80;;;2.30;99.90;;;;;;5096039;28;20204;-79
2021/01/23 04:47:37;;;;;;;8.45;1.50;;;2.40;99.90;;;;;;5098812;28;20199;-79
2021/01/23 04:50:05;;;;;;;12.35;2.00;;;2.40;99.90;;;;;;5096625;28;20203;-79
2021/01/23 04:52:37;;;;;;;13.90;1.65;;;2.40;99.90;;;;;;5093259;28;20203;-80
2021/01/23 04:55:08;;;;;;;15.63;1.95;;;2.30;99.90;;;;;;5089487;28;20208;-79
2021/01/23 04:57:34;;;;;;;11.23;2.00;;;2.30;99.90;;;;;;5097076;28;20500;-79
2021/01/23 05:00:00;;;;;;;14.35;2.00;;;2.30;99.90;;;;;;5093451;28;20206;-79
2021/01/23 05:02:25;;;;;;;11.60;2.15;;;2.30;99.90;;;;;;5097911;28;20568;-79
2021/01/23 05:05:03;;;;;;;17.60;2.17;;;2.30;99.90;;;;;;5095961;28;20211;-79
2021/01/23 05:07:33;;;;;;;9.05;1.63;;;2.30;99.90;;;;;;5095902;28;20470;-78
2021/01/23 05:10:12;;;;;;;14.80;1.85;;;2.20;99.90;;;;;;5091227;28;20200;-79
2021/01/23 05:12:39;;;;;;;11.25;2.22;;;2.20;99.90;;;;;;5093311;28;20214;-78
2021/01/23 05:15:07;;;;;;;17.85;2.35;;;2.20;99.90;;;;;;5092436;28;20585;-78
2021/01/23 05:17:50;;;;;;;5.45;1.85;;;2.30;99.90;;;;;;5095663;28;20700;-79
2021/01/23 05:20:38;;;;;;;10.45;2.13;;;2.20;99.90;;;;;;5094881;28;20199;-78
2021/01/23 05:23:09;;;;;;;11.18;2.42;;;2.10;99.90;;;;;;5093513;28;20684;-77
2021/01/23 05:25:35;;;;;;;16.65;2.63;;;2.10;99.90;;;;;;5092314;28;20207;-77
2021/01/23 05:28:02;;;;;;;12.20;2.25;;;2.10;99.90;;;;;;5094347;28;20282;-79
2021/01/23 05:30:46;;;;;;;14.30;2.42;;;2.10;99.90;;;;;;5093663;28;20618;-79
2021/01/23 05:33:17;;;;;;;11.15;2.17;;;2.10;99.90;;;;;;5095572;28;20579;-79
2021/01/23 05:35:44;;;;;;;9.40;1.80;;;2.10;99.90;;;;;;5095206;28;20203;-79
2021/01/23 05:38:18;;;;;;;11.45;2.20;;;2.10;99.90;;;;;;5094686;28;20294;-79
2021/01/23 05:40:44;;;;;;;14.85;2.05;;;2.10;99.90;;;;;;5092881;28;20283;-80
2021/01/23 05:43:10;;;;;;;13.52;2.78;;;2.00;99.90;;;;;;5094052;28;20670;-79
2021/01/23 05:45:35;;;;;;;16.10;2.53;;;2.00;99.90;;;;;;5088845;28;20207;-80
2021/01/23 05:48:10;;;;;;;13.65;2.30;;;2.00;99.90;;;;;;5090394;28;20777;-79
2021/01/23 05:50:37;;;;;;;16.92;3.15;;;2.00;99.90;;;;;;5092437;28;20203;-80
2021/01/23 05:53:02;;;;;;;16.92;2.85;;;2.00;99.90;;;;;;5087789;28;20263;-80
2021/01/23 05:55:28;;;;;;;17.63;2.53;;;2.10;99.90;;;;;;5091881;28;20612;-80
2021/01/23 05:57:55;;;;;;;13.60;2.50;;;2.10;99.90;;;;;;5098190;28;20195;-80
2021/01/23 06:00:25;;;;;;;19.58;2.90;;;2.00;99.90;;;;;;5094544;28;20196;-80
2021/01/23 06:02:51;;;;;;;28.55;2.70;;;2.00;99.90;;;;;;5093993;28;20227;-79
2021/01/23 06:05:17;;;;;;;12.85;2.20;;;2.00;99.90;;;;;;5091675;28;20669;-80
2021/01/23 06:07:43;;;;;;;21.73;2.78;;;2.00;99.90;;;;;;5091627;28;20919;-79
2021/01/23 06:10:23;;;;;;;16.48;2.63;;;2.00;99.90;;;;;;5090472;28;20233;-80
2021/01/23 06:12:50;;;;;;;17.38;2.30;;;2.00;99.90;;;;;;5094486;28;20242;-79
2021/01/23 06:15:36;;;;;;;18.00;2.40;;;2.00;99.90;;;;;;5088506;28;20200;-80
2021/01/23 06:18:07;;;;;;;18.00;2.60;;;1.90;99.90;;;;;;5093663;28;20191;-79
2021/01/23 06:20:53;;;;;;;18.00;2.45;;;1.90;99.90;;;;;;5090023;28;20526;-79
2021/01/23 06:23:21;;;;;;;20.85;2.67;;;1.90;99.90;;;;;;5087644;28;20249;-80
2021/01/23 06:25:49;;;;;;;14.25;2.67;;;1.90;99.90;;;;;;5092429;28;20200;-80
2021/01/23 06:28:41;;;;;;;13.85;2.17;;;1.90;99.90;;;;;;5095144;28;20211;-79
2021/01/23 06:31:22;;;;;;;11.60;2.72;;;1.90;99.90;;;;;;5088609;28;20709;-79
2021/01/23 06:33:48;;;;;;;15.30;2.17;;;1.90;99.90;;;;;;5093280;28;20604;-79
2021/01/23 06:36:20;;;;;;;13.20;2.60;;;1.90;99.90;;;;;;5094730;28;20202;-80
2021/01/23 06:39:05;;;;;;;12.43;2.40;;;1.90;99.90;;;;;;5091607;28;20200;-79
2021/01/23 06:41:35;;;;;;;12.57;2.00;;;1.90;99.90;;;;;;5091029;28;20276;-80
2021/01/23 06:44:06;;;;;;;21.70;2.88;;;2.00;99.90;;;;;;5092303;28;20198;-79
2021/01/23 06:46:36;;;;;;;13.75;2.03;;;2.10;99.90;;;;;;5110549;28;20214;-80
2021/01/23 06:49:04;;;;;;;9.38;2.10;;;2.00;99.90;;;;;;5093369;28;20747;-80
2021/01/23 06:51:30;;;;;;;24.90;2.70;;;2.00;99.90;;;;;;5091449;28;20210;-80
2021/01/23 06:54:17;;;;;;;16.25;2.60;;;1.90;99.90;;;;;;5093249;28;20272;-84
2021/01/23 06:56:47;;;;;;;13.73;2.25;;;1.90;99.90;;;;;;5074300;28;20204;-79
2021/01/23 06:59:28;;;;;;;22.95;2.75;;;1.90;99.90;;;;;;5092072;28;20381;-81
2021/01/23 07:01:58;;;;;;;9.73;2.30;;;1.80;99.90;;;;;;5091619;28;20203;-80
2021/01/23 07:04:26;;;;;;;16.20;2.47;;;1.80;99.90;;;;;;5094178;28;20275;-79
2021/01/23 07:06:53;;;;;;;14.38;2.35;;;1.90;99.90;;;;;;5092092;28;20277;-80
2021/01/23 07:09:19;;;;;;;10.63;1.90;;;1.90;99.90;;;;;;5092161;28;20517;-81
2021/01/23 07:11:45;;;;;;;16.65;2.65;;;1.90;99.90;;;;;;5093459;28;20238;-82
2021/01/23 07:14:11;;;;;;;16.83;3.15;;;1.90;99.90;;;;;;5089531;28;20192;-82
2021/01/23 07:16:52;;;;;;;14.18;2.40;;;1.80;99.90;;;;;;5091055;28;20278;-81
2021/01/23 07:19:18;;;;;;;22.42;2.83;;;1.80;99.90;;;;;;5084069;28;20200;-81
2021/01/23 07:21:46;;;;;;;16.02;2.67;;;1.80;99.90;;;;;;5086624;28;20241;-83
2021/01/23 07:24:12;;;;;;;26.60;2.65;;;1.80;99.90;;;;;;5090881;28;20206;-81
2021/01/23 07:26:39;;;;;;;24.05;2.50;;;1.80;99.90;;;;;;5086866;28;20677;-80
2021/01/23 07:29:05;;;;;;;21.45;2.65;;;1.70;99.90;;;;;;5099795;27;20690;-79
2021/01/23 07:31:32;;;;;;;22.00;2.50;;;1.80;99.90;;;;;;5087661;28;20202;-79
2021/01/23 07:34:10;;;;;;;17.17;2.45;;;1.80;99.90;;;;;;5088087;28;20666;-79
2021/01/23 07:36:39;;;;;;;19.67;2.70;;;1.80;99.90;;;;;;5093205;28;20779;-79
2021/01/23 07:39:10;;;;;;;14.43;2.70;;;1.80;99.90;;;;;;5091623;28;20283;-77
2021/01/23 07:41:45;;;;;;;20.95;2.75;;;1.90;99.90;;;;;;5088648;28;20721;-81
2021/01/23 07:44:11;;;;;;;15.18;2.53;;;1.90;99.90;;;;;;5084764;28;20202;-81
2021/01/23 07:46:48;;;;;;;16.50;2.42;;;1.90;99.90;;;;;;5092357;28;20210;-79
2021/01/23 07:49:40;;;;;;;18.20;3.05;;;1.90;99.90;;;;;;5093134;28;20191;-79
2021/01/23 07:52:09;;;;;;;17.15;2.55;;;2.00;99.90;;;;;;5087285;28;20242;-78
2021/01/23 07:54:51;;;;;;;18.23;2.20;;;2.00;99.90;;;;;;5082974;28;20205;-79
2021/01/23 07:57:17;;;;;;;23.85;2.40;;;1.90;99.90;;;;;;5092445;28;20206;-79
2021/01/23 07:59:47;;;;;;;26.40;3.30;;;1.90;99.90;;;;;;5092776;28;20201;-79
2021/01/23 08:02:13;;;;;;;19.70;3.55;;;1.90;99.90;;;;;;5094360;28;20206;-80
2021/01/23 08:04:40;;;;;;;17.13;3.10;;;1.90;99.90;;;;;;5086947;28;20459;-79
2021/01/23 08:07:41;;;;;;;27.60;3.13;;;1.80;99.90;;;;;;5090910;28;20204;-81
2021/01/23 08:10:08;;;;;;;30.20;3.08;;;1.90;99.90;;;;;;5084917;28;20203;-79
2021/01/23 08:12:53;;;;;;;19.92;3.53;;;1.80;99.90;;;;;;5087812;28;20216;-79
2021/01/23 08:15:29;;;;;;;14.25;2.95;;;1.80;99.90;;;;;;5090080;28;20271;-79
2021/01/23 08:17:57;;;;;;;32.33;7.72;;;1.80;99.90;;;;;;5089018;28;20200;-80
2021/01/23 08:20:38;;;;;;;21.10;4.00;;;1.80;99.90;;;;;;5091036;28;20211;-78
2021/01/23 08:23:07;;;;;;;14.13;3.13;;;1.70;99.90;;;;;;5099195;28;20202;-79
2021/01/23 08:25:57;;;;;;;22.50;3.58;;;1.80;99.90;;;;;;5091593;27;20203;-79
2021/01/23 08:28:34;;;;;;;18.15;3.92;;;1.80;99.90;;;;;;5090816;28;20288;-80
2021/01/23 08:31:30;;;;;;;18.95;3.30;;;1.80;99.90;;;;;;5092930;28;20239;-80
2021/01/23 08:33:56;;;;;;;27.02;2.95;;;1.90;99.90;;;;;;5082455;28;20241;-78
2021/01/23 08:36:22;;;;;;;16.48;3.10;;;1.90;99.90;;;;;;5096855;28;20215;-79
2021/01/23 08:39:04;;;;;;;13.85;2.45;;;1.90;99.90;;;;;;5097351;28;20200;-79
2021/01/23 08:41:30;;;;;;;16.05;3.15;;;1.90;99.90;;;;;;5097984;28;20203;-79
2021/01/23 08:43:56;;;;;;;19.27;3.38;;;2.00;99.90;;;;;;5092234;28;20199;-78
2021/01/23 08:46:22;;;;;;;20.15;3.72;;;1.90;99.90;;;;;;5095840;28;20824;-79
2021/01/23 08:48:49;;;;;;;16.33;3.50;;;2.00;99.90;;;;;;5095134;28;20400;-78
2021/01/23 08:51:15;;;;;;;22.42;3.70;;;2.00;99.90;;;;;;5091917;28;20203;-79
2021/01/23 08:53:41;;;;;;;27.50;3.25;;;2.10;99.90;;;;;;5097172;28;20203;-79
2021/01/23 08:56:08;;;;;;;12.85;2.47;;;2.00;99.90;;;;;;5097591;28;20188;-79
2021/01/23 08:58:34;;;;;;;13.80;2.78;;;1.90;99.90;;;;;;5093397;28;20195;-79
2021/01/23 09:01:00;;;;;;;15.80;2.80;;;2.00;99.90;;;;;;5101819;28;20187;-78
2021/01/23 09:03:25;;;;;;;18.40;2.45;;;2.00;99.90;;;;;;5095188;28;20211;-79
2021/01/23 09:05:51;;;;;;;16.58;3.03;;;2.00;99.90;;;;;;5100739;28;20203;-79
2021/01/23 09:08:19;;;;;;;23.48;4.18;;;2.00;99.90;;;;;;5100317;28;21000;-79
2021/01/23 09:10:46;;;;;;;20.08;2.70;;;2.10;99.90;;;;;;5095815;28;20214;-79
2021/01/23 09:13:11;;;;;;;16.10;3.47;;;2.20;99.90;;;;;;5097723;28;20565;-80
2021/01/23 09:15:37;;;;;;;18.85;2.78;;;2.20;99.90;;;;;;5095511;28;20195;-79
2021/01/23 09:18:03;;;;;;;17.15;2.85;;;2.20;99.90;;;;;;5096000;28;20199;-79
2021/01/23 09:20:29;;;;;;;20.88;2.80;;;2.20;99.90;;;;;;5089167;28;20244;-78
2021/01/23 09:22:55;;;;;;;22.70;2.90;;;2.30;99.90;;;;;;5100118;28;20203;-79
2021/01/23 09:25:20;;;;;;;18.80;2.67;;;2.40;99.90;;;;;;5103594;28;20209;-79
2021/01/23 09:27:46;;;;;;;15.57;2.83;;;2.40;99.90;;;;;;5098493;28;20572;-79
2021/01/23 09:30:18;;;;;;;17.08;2.85;;;2.40;99.90;;;;;;5102524;28;20223;-79
2021/01/23 09:32:44;;;;;;;19.77;2.75;;;2.30;99.90;;;;;;5100336;28;20215;-80
2021/01/23 09:35:13;;;;;;;16.42;3.15;;;2.40;99.90;;;;;;5097383;28;20210;-81
2021/01/23 09:37:39;;;;;;;12.57;2.70;;;2.40;99.90;;;;;;5098850;28;20200;-80
2021/01/23 09:40:06;;;;;;;21.02;2.92;;;2.50;99.90;;;;;;5099117;28;20830;-81
2021/01/23 09:42:32;;;;;;;11.40;2.70;;;2.50;99.90;;;;;;5096373;28;20199;-80
2021/01/23 09:44:58;;;;;;;17.90;2.92;;;2.50;99.90;;;;;;5083274;28;20206;-84
2021/01/23 09:47:24;;;;;;;14.75;2.28;;;2.50;99.90;;;;;;5091428;28;20340;-85
2021/01/23 09:49:49;;;;;;;11.43;2.40;;;2.50;99.90;;;;;;5089862;28;20210;-84
2021/01/23 09:52:15;;;;;;;20.85;2.80;;;2.50;99.90;;;;;;5097744;28;20220;-80
2021/01/23 09:54:41;;;;;;;14.32;2.22;;;2.50;99.90;;;;;;5095426;28;20541;-81
2021/01/23 09:57:07;;;;;;;15.77;3.20;;;2.50;99.90;;;;;;5098016;28;20199;-80
2021/01/23 09:59:33;;;;;;;12.50;2.17;;;2.60;99.90;;;;;;5094801;28;20199;-79
2021/01/23 10:01:59;;;;;;;18.85;2.40;;;2.60;99.90;;;;;;5096612;28;21069;-78
2021/01/23 10:04:26;;;;;;;18.48;2.72;;;2.60;99.90;;;;;;5093154;28;20307;-80
2021/01/23 10:06:52;;;;;;;14.57;2.33;;;2.70;99.90;;;;;;5092878;28;20215;-80
2021/01/23 10:09:36;;;;;;;18.50;2.72;;;2.80;99.90;;;;;;5094331;28;20196;-81
2021/01/23 10:12:02;;;;;;;18.77;3.22;;;2.80;99.90;;;;;;5095310;28;20211;-82
2021/01/23 10:14:28;;;;;;;20.98;2.90;;;2.90;99.90;;;;;;5097066;28;20196;-82
2021/01/23 10:16:53;;;;;;;9.63;2.40;;;2.90;99.90;;;;;;5102586;28;20195;-82
2021/01/23 10:19:19;;;;;;;11.35;2.45;;;3.00;99.90;;;;;;5093164;28;20202;-83
2021/01/23 10:21:47;;;;;;;15.43;2.42;;;3.10;99.90;;;;;;5097843;28;20226;-83
2021/01/23 10:24:13;;;;;;;10.73;2.78;;;3.10;99.90;;;;;;5101193;28;20223;-79
2021/01/23 10:26:38;;;;;;;16.15;2.67;;;3.10;99.90;;;;;;5099342;28;21067;-82
2021/01/23 10:29:04;;;;;;;15.77;2.42;;;3.10;99.90;;;;;;5098777;28;20204;-83
2021/01/23 10:31:30;;;;;;;14.45;2.20;;;3.10;99.90;;;;;;5095556;28;20289;-84
2021/01/23 10:33:56;;;;;;;11.35;2.35;;;3.20;99.90;;;;;;5087181;28;20764;-86
2021/01/23 10:36:25;;;;;;;16.48;2.45;;;3.20;99.90;;;;;;5094365;28;20560;-87
2021/01/23 10:38:51;;;;;;;12.82;2.13;;;3.20;99.90;;;;;;5086742;28;20653;-86
2021/01/23 10:41:16;;;;;;;16.23;2.42;;;3.20;99.90;;;;;;5086913;28;20193;-90
2021/01/23 10:43:42;;;;;;;13.63;2.35;;;3.20;99.90;;;;;;5088226;28;20205;-87
2021/01/23 10:46:08;;;;;;;11.13;2.42;;;3.30;99.90;;;;;;5085501;28;20227;-85
2021/01/23 10:48:34;;;;;;;14.18;2.55;;;3.30;99.90;;;;;;5086132;28;20192;-86
2021/01/23 10:50:59;;;;;;;14.70;2.42;;;3.40;99.90;;;;;;5090799;28;20237;-85
2021/01/23 10:53:25;;;;;;;15.45;2.38;;;3.50;99.90;;;;;;5094792;28;20223;-84
2021/01/23 10:55:51;;;;;;;9.70;2.15;;;3.50;99.90;;;;;;5096145;28;20244;-83
2021/01/23 10:58:16;;;;;;;11.82;2.13;;;3.60;99.90;;;;;;5092133;28;20195;-82
2021/01/23 11:00:45;;;;;;;10.45;2.20;;;3.60;99.90;;;;;;5095574;28;20188;-83
2021/01/23 11:03:11;;;;;;;15.02;2.75;;;3.70;99.90;;;;;;5091210;28;20688;-82
2021/01/23 11:05:37;;;;;;;25.65;2.60;;;3.70;99.90;;;;;;5093779;28;20227;-83
2021/01/23 11:08:04;;;;;;;11.45;2.28;;;3.70;99.90;;;;;;5092807;28;20601;-83
2021/01/23 11:10:29;;;;;;;14.50;2.17;;;3.80;99.90;;;;;;5096340;28;20195;-83
2021/01/23 11:12:55;;;;;;;16.98;2.50;;;3.70;99.90;;;;;;5101187;28;20214;-84
2021/01/23 11:15:21;;;;;;;17.58;2.47;;;3.70;99.90;;;;;;5097016;28;20248;-81
2021/01/23 11:17:46;;;;;;;16.05;2.83;;;3.70;99.90;;;;;;5094822;28;20300;-83
2021/01/23 11:20:13;;;;;;;14.20;2.33;;;3.70;99.90;;;;;;5087360;28;20196;-84
2021/01/23 11:22:38;;;;;;;10.95;2.17;;;3.80;99.90;;;;;;5092791;28;20200;-84
2021/01/23 11:25:05;;;;;;;18.58;2.90;;;3.80;99.90;;;;;;5097125;28;20203;-83
2021/01/23 11:27:30;;;;;;;19.65;1.98;;;3.80;99.90;;;;;;5093327;28;20192;-86
2021/01/23 11:29:56;;;;;;;19.02;2.58;;;3.80;99.90;;;;;;5092803;28;20731;-84
2021/01/23 11:32:22;;;;;;;18.50;2.25;;;3.80;99.90;;;;;;5098527;28;20658;-84
2021/01/23 11:34:47;;;;;;;19.85;2.08;;;3.80;99.90;;;;;;5101733;28;20295;-84
2021/01/23 11:37:13;;;;;;;10.18;2.13;;;3.90;99.90;;;;;;5095882;28;20200;-86
2021/01/23 11:39:39;;;;;;;24.30;2.67;;;3.90;99.90;;;;;;5104531;28;20192;-86
2021/01/23 11:42:05;;;;;;;18.65;2.45;;;3.90;99.90;;;;;;5101370;28;20311;-82
2021/01/23 11:44:31;;;;;;;14.85;2.53;;;4.00;99.90;;;;;;5098485;28;20282;-84
2021/01/23 11:46:57;;;;;;;16.55;2.45;;;4.10;99.90;;;;;;5102000;28;20286;-90
2021/01/23 11:49:22;;;;;;;29.02;2.97;;;4.10;99.90;;;;;;5098941;28;20207;-87
2021/01/23 11:51:48;;;;;;;30.67;2.65;;;4.10;99.90;;;;;;5103874;28;20203;-86
2021/01/23 11:54:15;;;;;;;13.18;2.40;;;4.10;99.90;;;;;;5100061;28;20210;-84
2021/01/23 11:56:41;;;;;;;27.30;2.95;;;4.00;99.90;;;;;;5097712;28;20207;-83
2021/01/23 11:59:07;;;;;;;9.77;2.00;;;4.00;99.90;;;;;;5095619;28;20192;-81
2021/01/23 12:01:34;;;;;;;18.45;2.58;;;3.90;99.90;;;;;;5101144;28;20199;-84
2021/01/23 12:03:59;;;;;;;12.43;2.42;;;3.90;99.90;;;;;;5099009;28;20246;-84
2021/01/23 12:06:25;;;;;;;11.32;2.15;;;3.80;99.90;;;;;;5105000;28;20196;-87
2021/01/23 12:08:51;;;;;;;17.33;3.17;;;3.90;99.90;;;;;;5103540;28;20200;-89
2021/01/23 12:11:17;;;;;;;10.43;2.42;;;3.90;99.90;;;;;;5097102;28;20206;-88
2021/01/23 12:13:42;;;;;;;17.00;2.20;;;3.90;99.90;;;;;;5102054;28;20291;-88
2021/01/23 12:16:09;;;;;;;11.43;2.40;;;3.90;99.90;;;;;;5099712;28;20229;-90
2021/01/23 12:18:35;;;;;;;21.60;3.25;;;3.90;99.90;;;;;;5098828;28;20207;-90
2021/01/23 12:21:00;;;;;;;13.23;2.28;;;3.80;99.90;;;;;;5091961;28;20191;-90
2021/01/23 12:23:29;;;;;;;16.55;2.50;;;3.80;99.90;;;;;;5102464;28;20231;-90
2021/01/23 12:25:55;;;;;;;15.38;2.58;;;3.80;99.90;;;;;;5097889;28;20210;-91
2021/01/23 12:28:20;;;;;;;13.13;2.45;;;3.70;99.90;;;;;;5100086;28;20211;-87
2021/01/23 12:30:46;;;;;;;12.38;2.75;;;3.70;99.90;;;;;;5102258;28;20206;-90
2021/01/23 12:33:12;;;;;;;18.13;3.13;;;3.70;99.90;;;;;;5097872;28;20211;-87
2021/01/23 12:35:37;;;;;;;20.15;2.53;;;3.70;99.90;;;;;;5097903;28;20226;-90
2021/01/23 12:38:03;;;;;;;32.70;2.70;;;3.60;99.90;;;;;;5100030;28;20323;-88
2021/01/23 12:40:29;;;;;;;14.63;2.15;;;3.60;99.90;;;;;;5100028;28;20721;-86
2021/01/23 12:42:55;;;;;;;20.65;2.67;;;3.50;99.90;;;;;;5101390;28;20297;-85
2021/01/23 12:45:21;;;;;;;21.88;3.03;;;3.50;99.90;;;;;;5097629;28;20187;-87
2021/01/23 12:47:46;;;;;;;14.60;2.10;;;3.50;99.90;;;;;;5097891;28;20199;-82
2021/01/23 12:50:12;;;;;;;9.80;1.77;;;3.50;99.90;;;;;;5101383;28;20206;-82
2021/01/23 12:52:38;;;;;;;15.52;2.10;;;3.50;99.90;;;;;;5092550;28;20204;-82
2021/01/23 12:55:09;;;;;;;16.63;2.42;;;3.40;99.90;;;;;;5098576;28;20231;-82
2021/01/23 12:57:38;;;;;;;17.20;2.00;;;3.30;99.90;;;;;;5094518;28;20252;-80
2021/01/23 13:00:06;;;;;;;8.35;2.08;;;3.20;99.90;;;;;;5107139;28;20188;-79